sensor_id;sensor_type;location;lat;lon;timestamp;pressure;altitude;pressure_sealevel;temperature;humidity
12468;BME280;57850;52.922;6.256;2023-02-22T00:01:11;101753.94;;;12.70;nan
12468;BME280;57850;52.922;6.256;2023-02-22T00:03:48;101780.09;;;12.42;nan
12468;BME280;57850;52.922;6.256;2023-02-22T00:06:17;101762.44;;;12.78;nan
12468;BME280;57850;52.922;6.256;2023-02-22T00:08:47;101771.97;;;12.51;nan
12468;BME280;57850;52.922;6.256;2023-02-22T00:11:15;101785.75;;;12.27;nan
12468;BME280;57850;52.922;6.256;2023-02-22T00:13:41;101772.59;;;12.59;nan
12468;BME280;57850;52.922;6.256;2023-02-22T00:16:13;101779.22;;;12.42;nan
12468;BME280;57850;52.922;6.256;2023-02-22T00:18:40;101769.03;;;12.32;nan
12468;BME280;57850;52.922;6.256;2023-02-22T00:21:09;101759.97;;;12.73;nan
12468;BME280;57850;52.922;6.256;2023-02-22T00:23:39;101774.38;;;12.59;nan
12468;BME280;57850;52.922;6.256;2023-02-22T00:26:08;101792.16;;;12.15;nan
12468;BME280;57850;52.922;6.256;2023-02-22T00:28:35;101776.53;;;12.45;nan
12468;BME280;57850;52.922;6.256;2023-02-22T00:31:02;101776.28;;;12.23;nan
12468;BME280;57850;52.922;6.256;2023-02-22T00:33:29;101774.16;;;12.35;nan
12468;BME280;57850;52.922;6.256;2023-02-22T00:35:56;101787.25;;;12.05;nan
12468;BME280;57850;52.922;6.256;2023-02-22T00:38:23;101766.28;;;12.37;nan
12468;BME280;57850;52.922;6.256;2023-02-22T00:40:49;101780.22;;;12.07;nan
12468;BME280;57850;52.922;6.256;2023-02-22T00:43:18;101794.88;;;11.80;nan
12468;BME280;57850;52.922;6.256;2023-02-22T00:45:44;101784.03;;;11.60;nan
12468;BME280;57850;52.922;6.256;2023-02-22T00:48:11;101778.31;;;11.46;nan
12468;BME280;57850;52.922;6.256;2023-02-22T00:50:37;101776.28;;;11.57;nan
12468;BME280;57850;52.922;6.256;2023-02-22T00:53:04;101735.38;;;12.50;nan
12468;BME280;57850;52.922;6.256;2023-02-22T00:55:36;101758.06;;;12.49;nan
12468;BME280;57850;52.922;6.256;2023-02-22T00:58:03;101762.84;;;12.35;nan
12468;BME280;57850;52.922;6.256;2023-02-22T01:00:34;101766.03;;;12.46;nan
12468;BME280;57850;52.922;6.256;2023-02-22T01:03:02;101751.63;;;12.59;nan
12468;BME280;57850;52.922;6.256;2023-02-22T01:05:30;101762.38;;;12.50;nan
12468;BME280;57850;52.922;6.256;2023-02-22T01:07:59;101751.41;;;12.68;nan
12468;BME280;57850;52.922;6.256;2023-02-22T01:10:27;101761.38;;;12.25;nan
12468;BME280;57850;52.922;6.256;2023-02-22T01:12:54;101757.50;;;12.38;nan
12468;BME280;57850;52.922;6.256;2023-02-22T01:15:23;101758.31;;;12.11;nan
12468;BME280;57850;52.922;6.256;2023-02-22T01:17:52;101741.00;;;12.36;nan
12468;BME280;57850;52.922;6.256;2023-02-22T01:20:21;101753.50;;;12.26;nan
12468;BME280;57850;52.922;6.256;2023-02-22T01:22:50;101768.28;;;11.97;nan
12468;BME280;57850;52.922;6.256;2023-02-22T01:25:19;101765.97;;;11.86;nan
12468;BME280;57850;52.922;6.256;2023-02-22T01:27:46;101754.91;;;11.75;nan
12468;BME280;57850;52.922;6.256;2023-02-22T01:30:16;101756.91;;;11.99;nan
12468;BME280;57850;52.922;6.256;2023-02-22T01:32:45;101771.03;;;11.57;nan
12468;BME280;57850;52.922;6.256;2023-02-22T01:35:16;101755.25;;;11.61;nan
12468;BME280;57850;52.922;6.256;2023-02-22T01:37:43;101750.38;;;11.81;nan
12468;BME280;57850;52.922;6.256;2023-02-22T01:40:16;101743.75;;;12.01;nan
12468;BME280;57850;52.922;6.256;2023-02-22T01:42:46;101750.41;;;12.12;nan
12468;BME280;57850;52.922;6.256;2023-02-22T01:45:43;101750.63;;;12.05;nan
12468;BME280;57850;52.922;6.256;2023-02-22T01:48:16;101755.19;;;11.97;nan
12468;BME280;57850;52.922;6.256;2023-02-22T01:50:49;101738.06;;;12.17;nan
12468;BME280;57850;52.922;6.256;2023-02-22T01:53:19;101748.88;;;12.05;nan
12468;BME280;57850;52.922;6.256;2023-02-22T01:55:48;101729.59;;;12.39;nan
12468;BME280;57850;52.922;6.256;2023-02-22T01:58:17;101749.94;;;11.98;nan
12468;BME280;57850;52.922;6.256;2023-02-22T02:00:44;101747.25;;;12.00;nan
12468;BME280;57850;52.922;6.256;2023-02-22T02:03:13;101752.50;;;12.00;nan
12468;BME280;57850;52.922;6.256;2023-02-22T02:05:42;101735.50;;;12.45;nan
12468;BME280;57850;52.922;6.256;2023-02-22T02:08:20;101753.41;;;11.99;nan
12468;BME280;57850;52.922;6.256;2023-02-22T02:10:50;101747.88;;;12.09;nan
12468;BME280;57850;52.922;6.256;2023-02-22T02:13:18;101734.03;;;12.37;nan
12468;BME280;57850;52.922;6.256;2023-02-22T02:15:45;101743.97;;;12.24;nan
12468;BME280;57850;52.922;6.256;2023-02-22T02:18:14;101744.72;;;11.98;nan
12468;BME280;57850;52.922;6.256;2023-02-22T02:20:49;101732.66;;;12.23;nan
12468;BME280;57850;52.922;6.256;2023-02-22T02:23:43;101727.56;;;12.48;nan
12468;BME280;57850;52.922;6.256;2023-02-22T02:26:29;101738.59;;;12.28;nan
12468;BME280;57850;52.922;6.256;2023-02-22T02:29:24;101733.34;;;12.30;nan
12468;BME280;57850;52.922;6.256;2023-02-22T02:32:37;101736.44;;;12.13;nan
12468;BME280;57850;52.922;6.256;2023-02-22T02:35:10;101730.81;;;11.96;nan
12468;BME280;57850;52.922;6.256;2023-02-22T02:37:45;101726.66;;;11.89;nan
12468;BME280;57850;52.922;6.256;2023-02-22T02:40:19;101713.56;;;11.89;nan
12468;BME280;57850;52.922;6.256;2023-02-22T02:42:53;101724.53;;;11.69;nan
12468;BME280;57850;52.922;6.256;2023-02-22T02:45:28;101707.22;;;11.98;nan
12468;BME280;57850;52.922;6.256;2023-02-22T02:47:58;101695.13;;;12.24;nan
12468;BME280;57850;52.922;6.256;2023-02-22T02:50:31;101709.81;;;11.99;nan
12468;BME280;57850;52.922;6.256;2023-02-22T02:53:02;101705.19;;;12.09;nan
12468;BME280;57850;52.922;6.256;2023-02-22T02:55:31;101699.13;;;12.07;nan
12468;BME280;57850;52.922;6.256;2023-02-22T02:58:01;101698.06;;;11.83;nan
12468;BME280;57850;52.922;6.256;2023-02-22T03:00:31;101683.34;;;11.79;nan
12468;BME280;57850;52.922;6.256;2023-02-22T03:06:19;101689.41;;;11.47;nan
12468;BME280;57850;52.922;6.256;2023-02-22T03:08:57;101675.41;;;11.84;nan
12468;BME280;57850;52.922;6.256;2023-02-22T03:11:27;101680.88;;;11.74;nan
12468;BME280;57850;52.922;6.256;2023-02-22T03:14:02;101652.22;;;12.01;nan
12468;BME280;57850;52.922;6.256;2023-02-22T03:16:33;101666.78;;;11.80;nan
12468;BME280;57850;52.922;6.256;2023-02-22T03:19:08;101674.47;;;11.52;nan
12468;BME280;57850;52.922;6.256;2023-02-22T03:21:44;101666.16;;;11.69;nan
12468;BME280;57850;52.922;6.256;2023-02-22T03:24:17;101661.78;;;11.69;nan
12468;BME280;57850;52.922;6.256;2023-02-22T03:26:50;101669.53;;;11.42;nan
12468;BME280;57850;52.922;6.256;2023-02-22T03:29:21;101664.28;;;11.43;nan
12468;BME280;57850;52.922;6.256;2023-02-22T03:31:54;101661.88;;;11.34;nan
12468;BME280;57850;52.922;6.256;2023-02-22T03:34:29;101654.25;;;11.26;nan
12468;BME280;57850;52.922;6.256;2023-02-22T03:37:01;101644.34;;;11.39;nan
12468;BME280;57850;52.922;6.256;2023-02-22T03:39:32;101640.88;;;11.39;nan
12468;BME280;57850;52.922;6.256;2023-02-22T03:42:07;101647.97;;;11.34;nan
12468;BME280;57850;52.922;6.256;2023-02-22T03:44:37;101646.53;;;11.54;nan
12468;BME280;57850;52.922;6.256;2023-02-22T03:47:07;101650.19;;;11.49;nan
12468;BME280;57850;52.922;6.256;2023-02-22T03:49:37;101629.84;;;11.91;nan
12468;BME280;57850;52.922;6.256;2023-02-22T03:52:06;101630.69;;;11.91;nan
12468;BME280;57850;52.922;6.256;2023-02-22T03:54:33;101651.00;;;11.83;nan
12468;BME280;57850;52.922;6.256;2023-02-22T03:57:07;101656.56;;;11.71;nan
12468;BME280;57850;52.922;6.256;2023-02-22T03:59:37;101641.75;;;12.01;nan
12468;BME280;57850;52.922;6.256;2023-02-22T04:02:04;101657.00;;;11.87;nan
12468;BME280;57850;52.922;6.256;2023-02-22T04:04:31;101644.78;;;11.87;nan
12468;BME280;57850;52.922;6.256;2023-02-22T04:06:59;101646.75;;;11.79;nan
12468;BME280;57850;52.922;6.256;2023-02-22T04:09:26;101635.41;;;11.80;nan
12468;BME280;57850;52.922;6.256;2023-02-22T04:11:52;101647.47;;;11.84;nan
12468;BME280;57850;52.922;6.256;2023-02-22T04:14:19;101651.34;;;11.69;nan
12468;BME280;57850;52.922;6.256;2023-02-22T04:16:45;101640.28;;;11.60;nan
12468;BME280;57850;52.922;6.256;2023-02-22T04:19:12;101674.06;;;11.01;nan
12468;BME280;57850;52.922;6.256;2023-02-22T04:21:39;101645.22;;;11.40;nan
12468;BME280;57850;52.922;6.256;2023-02-22T04:24:07;101649.94;;;11.58;nan
12468;BME280;57850;52.922;6.256;2023-02-22T04:26:33;101658.59;;;11.27;nan
12468;BME280;57850;52.922;6.256;2023-02-22T04:29:01;101646.66;;;11.50;nan
12468;BME280;57850;52.922;6.256;2023-02-22T04:31:28;101649.06;;;11.57;nan
12468;BME280;57850;52.922;6.256;2023-02-22T04:33:55;101651.78;;;11.53;nan
12468;BME280;57850;52.922;6.256;2023-02-22T04:36:21;101662.31;;;11.50;nan
12468;BME280;57850;52.922;6.256;2023-02-22T04:38:48;101663.88;;;11.24;nan
12468;BME280;57850;52.922;6.256;2023-02-22T04:41:18;101659.44;;;11.28;nan
12468;BME280;57850;52.922;6.256;2023-02-22T04:43:45;101659.59;;;11.56;nan
12468;BME280;57850;52.922;6.256;2023-02-22T04:46:12;101674.06;;;11.00;nan
12468;BME280;57850;52.922;6.256;2023-02-22T04:48:38;101673.91;;;11.07;nan
12468;BME280;57850;52.922;6.256;2023-02-22T04:51:06;101685.75;;;10.85;nan
12468;BME280;57850;52.922;6.256;2023-02-22T04:53:32;101678.72;;;10.89;nan
12468;BME280;57850;52.922;6.256;2023-02-22T04:56:00;101673.38;;;10.93;nan
12468;BME280;57850;52.922;6.256;2023-02-22T04:58:27;101681.66;;;11.10;nan
12468;BME280;57850;52.922;6.256;2023-02-22T05:00:56;101681.66;;;11.10;nan
12468;BME280;57850;52.922;6.256;2023-02-22T05:03:22;101669.53;;;11.42;nan
12468;BME280;57850;52.922;6.256;2023-02-22T05:05:50;101657.50;;;11.67;nan
12468;BME280;57850;52.922;6.256;2023-02-22T05:08:17;101672.13;;;11.42;nan
12468;BME280;57850;52.922;6.256;2023-02-22T05:10:44;101676.97;;;10.89;nan
12468;BME280;57850;52.922;6.256;2023-02-22T05:13:11;101660.25;;;10.96;nan
12468;BME280;57850;52.922;6.256;2023-02-22T05:15:39;101664.34;;;10.71;nan
12468;BME280;57850;52.922;6.256;2023-02-22T05:18:06;101650.78;;;10.92;nan
12468;BME280;57850;52.922;6.256;2023-02-22T05:20:34;101642.81;;;10.97;nan
12468;BME280;57850;52.922;6.256;2023-02-22T05:23:02;101642.88;;;10.95;nan
12468;BME280;57850;52.922;6.256;2023-02-22T05:25:30;101648.41;;;10.82;nan
12468;BME280;57850;52.922;6.256;2023-02-22T05:27:59;101641.19;;;10.93;nan
12468;BME280;57850;52.922;6.256;2023-02-22T05:30:28;101654.91;;;10.65;nan
12468;BME280;57850;52.922;6.256;2023-02-22T05:32:56;101621.97;;;11.29;nan
12468;BME280;57850;52.922;6.256;2023-02-22T05:35:23;101620.66;;;11.45;nan
12468;BME280;57850;52.922;6.256;2023-02-22T05:37:50;101635.22;;;11.21;nan
12468;BME280;57850;52.922;6.256;2023-02-22T05:40:18;101642.72;;;11.01;nan
12468;BME280;57850;52.922;6.256;2023-02-22T05:42:45;101659.88;;;10.76;nan
12468;BME280;57850;52.922;6.256;2023-02-22T05:45:12;101645.47;;;10.95;nan
12468;BME280;57850;52.922;6.256;2023-02-22T05:47:39;101636.69;;;10.99;nan
12468;BME280;57850;52.922;6.256;2023-02-22T05:50:08;101630.06;;;10.86;nan
12468;BME280;57850;52.922;6.256;2023-02-22T05:52:35;101630.16;;;10.82;nan
12468;BME280;57850;52.922;6.256;2023-02-22T05:55:03;101629.97;;;10.89;nan
12468;BME280;57850;52.922;6.256;2023-02-22T05:57:30;101621.53;;;10.78;nan
12468;BME280;57850;52.922;6.256;2023-02-22T05:59:56;101621.59;;;10.77;nan
12468;BME280;57850;52.922;6.256;2023-02-22T06:02:23;101619.59;;;10.86;nan
12468;BME280;57850;52.922;6.256;2023-02-22T06:04:49;101603.84;;;11.23;nan
12468;BME280;57850;52.922;6.256;2023-02-22T06:07:17;101617.88;;;10.85;nan
12468;BME280;57850;52.922;6.256;2023-02-22T06:09:44;101600.09;;;11.33;nan
12468;BME280;57850;52.922;6.256;2023-02-22T06:12:10;101604.25;;;11.08;nan
12468;BME280;57850;52.922;6.256;2023-02-22T06:14:37;101594.09;;;11.29;nan
12468;BME280;57850;52.922;6.256;2023-02-22T06:17:05;101617.41;;;11.03;nan
12468;BME280;57850;52.922;6.256;2023-02-22T06:19:32;101612.59;;;10.88;nan
12468;BME280;57850;52.922;6.256;2023-02-22T06:21:58;101616.22;;;10.81;nan
12468;BME280;57850;52.922;6.256;2023-02-22T06:24:28;101616.16;;;10.84;nan
12468;BME280;57850;52.922;6.256;2023-02-22T06:26:55;101601.31;;;11.20;nan
12468;BME280;57850;52.922;6.256;2023-02-22T06:29:22;101610.09;;;11.17;nan
12468;BME280;57850;52.922;6.256;2023-02-22T06:31:49;101615.88;;;10.96;nan
12468;BME280;57850;52.922;6.256;2023-02-22T06:34:16;101609.63;;;11.02;nan
12468;BME280;57850;52.922;6.256;2023-02-22T06:36:42;101600.09;;;11.33;nan
12468;BME280;57850;52.922;6.256;2023-02-22T06:39:09;101589.66;;;11.33;nan
12468;BME280;57850;52.922;6.256;2023-02-22T06:41:38;101593.41;;;11.21;nan
12468;BME280;57850;52.922;6.256;2023-02-22T06:44:05;101590.72;;;11.24;nan
12468;BME280;57850;52.922;6.256;2023-02-22T06:46:32;101599.66;;;10.84;nan
12468;BME280;57850;52.922;6.256;2023-02-22T06:48:59;101601.19;;;10.91;nan
12468;BME280;57850;52.922;6.256;2023-02-22T06:51:26;101592.69;;;11.16;nan
12468;BME280;57850;52.922;6.256;2023-02-22T06:53:53;101603.72;;;10.95;nan
12468;BME280;57850;52.922;6.256;2023-02-22T06:56:20;101611.00;;;10.81;nan
12468;BME280;57850;52.922;6.256;2023-02-22T06:58:48;101609.47;;;10.74;nan
12468;BME280;57850;52.922;6.256;2023-02-22T07:01:14;101612.00;;;10.77;nan
12468;BME280;57850;52.922;6.256;2023-02-22T07:03:41;101600.13;;;10.99;nan
12468;BME280;57850;52.922;6.256;2023-02-22T07:06:07;101597.81;;;11.21;nan
12468;BME280;57850;52.922;6.256;2023-02-22T07:08:35;101605.81;;;11.15;nan
12468;BME280;57850;52.922;6.256;2023-02-22T07:11:02;101597.59;;;11.28;nan
12468;BME280;57850;52.922;6.256;2023-02-22T07:13:29;101594.03;;;11.31;nan
12468;BME280;57850;52.922;6.256;2023-02-22T07:15:56;101600.44;;;11.21;nan
12468;BME280;57850;52.922;6.256;2023-02-22T07:18:24;101607.66;;;11.11;nan
12468;BME280;57850;52.922;6.256;2023-02-22T07:20:50;101603.66;;;11.31;nan
12468;BME280;57850;52.922;6.256;2023-02-22T07:23:18;101599.41;;;11.26;nan
12468;BME280;57850;52.922;6.256;2023-02-22T07:25:46;101594.41;;;11.17;nan
12468;BME280;57850;52.922;6.256;2023-02-22T07:28:12;101590.34;;;11.38;nan
12468;BME280;57850;52.922;6.256;2023-02-22T07:30:39;101586.16;;;11.33;nan
12468;BME280;57850;52.922;6.256;2023-02-22T07:33:08;101587.13;;;11.28;nan
12468;BME280;57850;52.922;6.256;2023-02-22T07:35:37;101585.44;;;11.27;nan
12468;BME280;57850;52.922;6.256;2023-02-22T07:38:07;101594.19;;;11.25;nan
12468;BME280;57850;52.922;6.256;2023-02-22T07:40:34;101575.47;;;11.42;nan
12468;BME280;57850;52.922;6.256;2023-02-22T07:43:03;101581.59;;;11.08;nan
12468;BME280;57850;52.922;6.256;2023-02-22T07:45:32;101574.56;;;11.43;nan
12468;BME280;57850;52.922;6.256;2023-02-22T07:48:00;101576.78;;;11.25;nan
12468;BME280;57850;52.922;6.256;2023-02-22T07:50:30;101574.00;;;11.32;nan
12468;BME280;57850;52.922;6.256;2023-02-22T07:52:58;101594.28;;;10.90;nan
12468;BME280;57850;52.922;6.256;2023-02-22T07:55:26;101574.25;;;11.22;nan
12468;BME280;57850;52.922;6.256;2023-02-22T07:57:55;101608.50;;;10.41;nan
12468;BME280;57850;52.922;6.256;2023-02-22T08:00:24;101603.69;;;10.61;nan
12468;BME280;57850;52.922;6.256;2023-02-22T08:02:52;101589.31;;;10.79;nan
12468;BME280;57850;52.922;6.256;2023-02-22T08:05:19;101571.56;;;11.25;nan
12468;BME280;57850;52.922;6.256;2023-02-22T08:07:48;101584.81;;;10.84;nan
12468;BME280;57850;52.922;6.256;2023-02-22T08:10:16;101585.63;;;10.88;nan
12468;BME280;57850;52.922;6.256;2023-02-22T08:12:43;101585.03;;;10.77;nan
12468;BME280;57850;52.922;6.256;2023-02-22T08:15:15;101575.72;;;11.00;nan
12468;BME280;57850;52.922;6.256;2023-02-22T08:17:42;101589.41;;;10.74;nan
12468;BME280;57850;52.922;6.256;2023-02-22T08:20:09;101582.03;;;10.92;nan
12468;BME280;57850;52.922;6.256;2023-02-22T08:22:35;101584.50;;;10.64;nan
12468;BME280;57850;52.922;6.256;2023-02-22T08:25:04;101592.31;;;10.64;nan
12468;BME280;57850;52.922;6.256;2023-02-22T08:27:31;101585.38;;;10.63;nan
12468;BME280;57850;52.922;6.256;2023-02-22T08:29:58;101581.16;;;10.57;nan
12468;BME280;57850;52.922;6.256;2023-02-22T08:32:24;101575.38;;;10.45;nan
12468;BME280;57850;52.922;6.256;2023-02-22T08:34:51;101558.56;;;10.90;nan
12468;BME280;57850;52.922;6.256;2023-02-22T08:37:18;101560.09;;;10.99;nan
12468;BME280;57850;52.922;6.256;2023-02-22T08:39:44;101552.03;;;11.08;nan
12468;BME280;57850;52.922;6.256;2023-02-22T08:42:12;101562.00;;;10.92;nan
12468;BME280;57850;52.922;6.256;2023-02-22T08:44:39;101554.19;;;10.92;nan
12468;BME280;57850;52.922;6.256;2023-02-22T08:47:06;101563.19;;;11.13;nan
12468;BME280;57850;52.922;6.256;2023-02-22T08:49:32;101580.63;;;10.79;nan
12468;BME280;57850;52.922;6.256;2023-02-22T08:51:59;101583.16;;;10.82;nan
12468;BME280;57850;52.922;6.256;2023-02-22T08:54:26;101576.41;;;11.07;nan
12468;BME280;57850;52.922;6.256;2023-02-22T08:56:53;101549.75;;;11.57;nan
12468;BME280;57850;52.922;6.256;2023-02-22T08:59:21;101558.06;;;11.41;nan
12468;BME280;57850;52.922;6.256;2023-02-22T09:01:47;101539.34;;;11.85;nan
12468;BME280;57850;52.922;6.256;2023-02-22T09:04:13;101520.38;;;12.06;nan
12468;BME280;57850;52.922;6.256;2023-02-22T09:06:41;101546.09;;;11.34;nan
12468;BME280;57850;52.922;6.256;2023-02-22T09:09:08;101545.13;;;11.36;nan
12468;BME280;57850;52.922;6.256;2023-02-22T09:11:35;101533.84;;;11.65;nan
12468;BME280;57850;52.922;6.256;2023-02-22T09:14:01;101548.63;;;11.37;nan
12468;BME280;57850;52.922;6.256;2023-02-22T09:16:29;101543.63;;;11.58;nan
12468;BME280;57850;52.922;6.256;2023-02-22T09:18:56;101548.34;;;11.46;nan
12468;BME280;57850;52.922;6.256;2023-02-22T09:21:22;101575.16;;;10.89;nan
12468;BME280;57850;52.922;6.256;2023-02-22T09:23:49;101551.53;;;11.24;nan
12468;BME280;57850;52.922;6.256;2023-02-22T09:26:18;101543.75;;;11.54;nan
12468;BME280;57850;52.922;6.256;2023-02-22T09:28:47;101543.50;;;11.32;nan
12468;BME280;57850;52.922;6.256;2023-02-22T09:31:14;101555.84;;;10.95;nan
12468;BME280;57850;52.922;6.256;2023-02-22T09:33:42;101557.16;;;11.11;nan
12468;BME280;57850;52.922;6.256;2023-02-22T09:36:09;101543.38;;;11.37;nan
12468;BME280;57850;52.922;6.256;2023-02-22T09:38:35;101563.94;;;10.84;nan
12468;BME280;57850;52.922;6.256;2023-02-22T09:41:09;101557.56;;;10.96;nan
12468;BME280;57850;52.922;6.256;2023-02-22T09:43:44;101540.63;;;11.41;nan
12468;BME280;57850;52.922;6.256;2023-02-22T09:46:22;101528.72;;;11.62;nan
12468;BME280;57850;52.922;6.256;2023-02-22T09:49:02;101529.25;;;11.74;nan
12468;BME280;57850;52.922;6.256;2023-02-22T09:51:38;101524.94;;;11.72;nan
12468;BME280;57850;52.922;6.256;2023-02-22T09:54:12;101531.25;;;11.65;nan
12468;BME280;57850;52.922;6.256;2023-02-22T09:56:43;101537.25;;;11.38;nan
12468;BME280;57850;52.922;6.256;2023-02-22T09:59:14;101536.44;;;11.36;nan
12468;BME280;57850;52.922;6.256;2023-02-22T10:01:46;101557.75;;;10.88;nan
12468;BME280;57850;52.922;6.256;2023-02-22T10:04:19;101551.25;;;10.70;nan
12468;BME280;57850;52.922;6.256;2023-02-22T10:06:58;101526.63;;;11.13;nan
12468;BME280;57850;52.922;6.256;2023-02-22T10:09:31;101522.00;;;11.22;nan
12468;BME280;57850;52.922;6.256;2023-02-22T10:12:05;101520.56;;;11.43;nan
12468;BME280;57850;52.922;6.256;2023-02-22T10:14:54;101543.22;;;10.78;nan
12468;BME280;57850;52.922;6.256;2023-02-22T10:17:30;101526.25;;;10.94;nan
12468;BME280;57850;52.922;6.256;2023-02-22T10:20:17;101529.91;;;10.89;nan
12468;BME280;57850;52.922;6.256;2023-02-22T10:23:02;101499.69;;;11.42;nan
12468;BME280;57850;52.922;6.256;2023-02-22T10:25:35;101505.47;;;11.22;nan
12468;BME280;57850;52.922;6.256;2023-02-22T10:28:09;101516.50;;;11.01;nan
12468;BME280;57850;52.922;6.256;2023-02-22T10:30:42;101503.25;;;11.08;nan
12468;BME280;57850;52.922;6.256;2023-02-22T10:33:12;101519.66;;;10.81;nan
12468;BME280;57850;52.922;6.256;2023-02-22T10:35:43;101521.44;;;10.81;nan
12468;BME280;57850;52.922;6.256;2023-02-22T10:38:13;101517.03;;;10.81;nan
12468;BME280;57850;52.922;6.256;2023-02-22T10:40:47;101507.25;;;10.57;nan
12468;BME280;57850;52.922;6.256;2023-02-22T10:43:14;101489.13;;;10.52;nan
12468;BME280;57850;52.922;6.256;2023-02-22T10:45:41;101484.22;;;10.72;nan
12468;BME280;57850;52.922;6.256;2023-02-22T10:48:10;101474.63;;;10.73;nan
12468;BME280;57850;52.922;6.256;2023-02-22T10:50:42;101453.19;;;11.23;nan
12468;BME280;57850;52.922;6.256;2023-02-22T10:53:11;101447.25;;;11.48;nan
12468;BME280;57850;52.922;6.256;2023-02-22T10:56:13;101475.41;;;11.38;nan
12468;BME280;57850;52.922;6.256;2023-02-22T10:58:42;101476.50;;;11.00;nan
12468;BME280;57850;52.922;6.256;2023-02-22T11:01:25;101446.34;;;11.49;nan
12468;BME280;57850;52.922;6.256;2023-02-22T11:04:01;101453.13;;;11.25;nan
12468;BME280;57850;52.922;6.256;2023-02-22T11:06:31;101474.03;;;10.94;nan
12468;BME280;57850;52.922;6.256;2023-02-22T11:09:11;101443.81;;;11.46;nan
12468;BME280;57850;52.922;6.256;2023-02-22T11:11:40;101466.09;;;10.99;nan
12468;BME280;57850;52.922;6.256;2023-02-22T11:14:09;101454.97;;;10.92;nan
12468;BME280;57850;52.922;6.256;2023-02-22T11:16:39;101432.50;;;11.16;nan
12468;BME280;57850;52.922;6.256;2023-02-22T11:19:15;101429.72;;;11.22;nan
12468;BME280;57850;52.922;6.256;2023-02-22T11:21:46;101418.88;;;11.36;nan
12468;BME280;57850;52.922;6.256;2023-02-22T11:24:17;101419.94;;;11.28;nan
12468;BME280;57850;52.922;6.256;2023-02-22T11:26:46;101404.69;;;11.72;nan
12468;BME280;57850;52.922;6.256;2023-02-22T11:29:18;101414.34;;;11.68;nan
12468;BME280;57850;52.922;6.256;2023-02-22T11:31:47;101391.84;;;11.92;nan
12468;BME280;57850;52.922;6.256;2023-02-22T11:34:34;101406.66;;;11.92;nan
12468;BME280;57850;52.922;6.256;2023-02-22T11:37:22;101396.25;;;12.16;nan
12468;BME280;57850;52.922;6.256;2023-02-22T11:40:04;101391.19;;;12.37;nan
12468;BME280;57850;52.922;6.256;2023-02-22T11:42:31;101396.47;;;12.35;nan
12468;BME280;57850;52.922;6.256;2023-02-22T11:45:10;101401.13;;;12.01;nan
12468;BME280;57850;52.922;6.256;2023-02-22T11:47:47;101407.56;;;12.17;nan
12468;BME280;57850;52.922;6.256;2023-02-22T11:50:21;101383.47;;;12.57;nan
12468;BME280;57850;52.922;6.256;2023-02-22T11:53:01;101386.91;;;12.59;nan
12468;BME280;57850;52.922;6.256;2023-02-22T11:55:40;101377.44;;;13.03;nan
12468;BME280;57850;52.922;6.256;2023-02-22T11:58:26;101385.63;;;12.70;nan
12468;BME280;57850;52.922;6.256;2023-02-22T12:00:58;101358.06;;;13.30;nan
12468;BME280;57850;52.922;6.256;2023-02-22T12:03:52;101362.38;;;13.08;nan
12468;BME280;57850;52.922;6.256;2023-02-22T12:06:30;101371.72;;;12.92;nan
12468;BME280;57850;52.922;6.256;2023-02-22T12:09:09;101375.66;;;12.80;nan
12468;BME280;57850;52.922;6.256;2023-02-22T12:11:44;101377.09;;;12.65;nan
12468;BME280;57850;52.922;6.256;2023-02-22T12:14:20;101374.47;;;12.65;nan
12468;BME280;57850;52.922;6.256;2023-02-22T12:17:17;101369.72;;;12.98;nan
12468;BME280;57850;52.922;6.256;2023-02-22T12:19:49;101362.91;;;13.17;nan
12468;BME280;57850;52.922;6.256;2023-02-22T12:22:20;101375.53;;;12.83;nan
12468;BME280;57850;52.922;6.256;2023-02-22T12:24:55;101367.13;;;13.21;nan
12468;BME280;57850;52.922;6.256;2023-02-22T12:27:26;101386.25;;;12.77;nan
12468;BME280;57850;52.922;6.256;2023-02-22T12:29:58;101389.44;;;12.62;nan
12468;BME280;57850;52.922;6.256;2023-02-22T12:32:33;101388.69;;;12.58;nan
12468;BME280;57850;52.922;6.256;2023-02-22T12:35:11;101376.44;;;12.59;nan
12468;BME280;57850;52.922;6.256;2023-02-22T12:37:50;101353.34;;;12.93;nan
12468;BME280;57850;52.922;6.256;2023-02-22T12:40:24;101363.81;;;12.93;nan
12468;BME280;57850;52.922;6.256;2023-02-22T12:42:56;101368.25;;;12.91;nan
12468;BME280;57850;52.922;6.256;2023-02-22T12:45:29;101370.31;;;12.83;nan
12468;BME280;57850;52.922;6.256;2023-02-22T12:48:04;101354.00;;;12.98;nan
12468;BME280;57850;52.922;6.256;2023-02-22T12:50:36;101375.53;;;12.83;nan
12468;BME280;57850;52.922;6.256;2023-02-22T12:53:07;101368.81;;;12.76;nan
12468;BME280;57850;52.922;6.256;2023-02-22T12:55:43;101360.34;;;12.93;nan
12468;BME280;57850;52.922;6.256;2023-02-22T12:58:20;101356.63;;;12.75;nan
12468;BME280;57850;52.922;6.256;2023-02-22T13:00:55;101370.50;;;12.54;nan
12468;BME280;57850;52.922;6.256;2023-02-22T13:03:30;101357.50;;;12.99;nan
12468;BME280;57850;52.922;6.256;2023-02-22T13:06:10;101353.56;;;12.87;nan
12468;BME280;57850;52.922;6.256;2023-02-22T13:08:45;101351.19;;;12.81;nan
12468;BME280;57850;52.922;6.256;2023-02-22T13:11:21;101348.03;;;12.95;nan
12468;BME280;57850;52.922;6.256;2023-02-22T13:14:06;101346.28;;;12.95;nan
12468;BME280;57850;52.922;6.256;2023-02-22T13:16:42;101336.09;;;13.32;nan
12468;BME280;57850;52.922;6.256;2023-02-22T13:19:25;101343.56;;;13.21;nan
12468;BME280;57850;52.922;6.256;2023-02-22T13:21:56;101349.56;;;13.00;nan
12468;BME280;57850;52.922;6.256;2023-02-22T13:24:27;101338.78;;;13.09;nan
12468;BME280;57850;52.922;6.256;2023-02-22T13:26:59;101316.88;;;13.54;nan
12468;BME280;57850;52.922;6.256;2023-02-22T13:29:29;101332.25;;;13.63;nan
12468;BME280;57850;52.922;6.256;2023-02-22T13:32:07;101343.94;;;13.34;nan